Time;durP1;ratioP1;P1;durP2;ratioP2;P2;SDS_P1;SDS_P2;PMS_P1;PMS_P2;Temp;Humidity;BMP_temperature;BMP_pressure;BME280_temperature;BME280_humidity;BME280_pressure;Samples;Min_cycle;Max_cycle;Signal;HPM_P1;HPM_P2
2023/09/12 00:04:58;;;;;;;;;;;23.20;99.90;;;;;;6717200;88;20055;-77
2023/09/12 00:14:58;;;;;;;;;;;23.10;99.90;;;;;;6716546;88;20489;-78
2023/09/12 00:24:59;;;;;;;;;;;22.90;99.90;;;;;;6714537;88;20122;-79
2023/09/12 00:34:59;;;;;;;;;;;22.80;99.90;;;;;;6713015;88;20221;-79
2023/09/12 00:45:00;;;;;;;;;;;22.60;99.90;;;;;;6717339;88;20051;-79
2023/09/12 00:55:00;;;;;;;;;;;22.50;99.90;;;;;;6719026;88;20085;-79
2023/09/12 01:05:01;;;;;;;;;;;22.30;99.90;;;;;;6714696;88;20059;-79
2023/09/12 01:15:02;;;;;;;;;;;22.10;99.90;;;;;;6712905;88;20175;-79
2023/09/12 01:25:06;;;;;;;;;;;22.00;99.90;;;;;;6718498;88;20144;-79
2023/09/12 01:35:08;;;;;;;;;;;21.80;99.90;;;;;;6714947;88;20216;-79
2023/09/12 01:45:13;;;;;;;;;;;21.80;99.90;;;;;;6712644;88;20043;-80
2023/09/12 01:55:14;;;;;;;;;;;21.50;99.90;;;;;;6716566;88;20074;-79
2023/09/12 02:05:18;;;;;;;;;;;21.30;99.90;;;;;;6723728;88;20072;-79
2023/09/12 02:15:18;;;;;;;;;;;21.30;99.90;;;;;;6713556;88;20091;-80
2023/09/12 02:25:19;;;;;;;;;;;21.10;99.90;;;;;;6719814;88;20158;-80
2023/09/12 02:35:19;;;;;;;;;;;21.00;99.90;;;;;;6717780;88;20059;-79
2023/09/12 02:45:20;;;;;;;;;;;20.90;99.90;;;;;;6711439;88;20067;-78
2023/09/12 02:55:20;;;;;;;;;;;20.80;99.90;;;;;;6722201;88;20070;-79
2023/09/12 03:05:20;;;;;;;;;;;20.60;99.90;;;;;;6724081;88;20555;-78
2023/09/12 03:15:21;;;;;;;;;;;20.60;99.90;;;;;;6715901;88;20087;-82
2023/09/12 03:25:21;;;;;;;;;;;20.50;99.90;;;;;;6721377;88;20131;-79
2023/09/12 03:35:22;;;;;;;;;;;20.40;99.90;;;;;;6713411;88;20072;-79
2023/09/12 03:45:23;;;;;;;;;;;20.40;99.90;;;;;;6722182;88;20104;-79
2023/09/12 03:55:23;;;;;;;;;;;20.40;99.90;;;;;;6715396;88;20098;-79
2023/09/12 04:05:25;;;;;;;;;;;20.20;99.90;;;;;;6717157;88;20089;-79
2023/09/12 04:15:25;;;;;;;;;;;20.30;99.90;;;;;;6715678;88;21274;-79
2023/09/12 04:25:26;;;;;;;;;;;20.20;99.90;;;;;;6719791;88;20072;-81
2023/09/12 04:35:27;;;;;;;;;;;20.00;99.90;;;;;;6721070;88;20143;-80
2023/09/12 04:45:27;;;;;;;;;;;20.00;99.90;;;;;;6716640;88;20072;-81
2023/09/12 04:55:28;;;;;;;;;;;20.00;99.90;;;;;;6715877;88;20094;-80
2023/09/12 05:05:29;;;;;;;;;;;19.70;99.90;;;;;;6716217;88;20069;-81
2023/09/12 05:15:29;;;;;;;;;;;19.80;99.90;;;;;;6721053;88;20056;-80
2023/09/12 05:25:30;;;;;;;;;;;19.80;99.90;;;;;;6708915;88;20107;-82
2023/09/12 05:35:30;;;;;;;;;;;19.90;99.90;;;;;;6708198;88;20055;-80
2023/09/12 05:45:32;;;;;;;;;;;19.90;99.90;;;;;;6709348;88;20252;-81
2023/09/12 05:55:32;;;;;;;;;;;20.10;99.90;;;;;;6708155;88;20562;-81
2023/09/12 06:05:33;;;;;;;;;;;20.20;99.90;;;;;;6712065;88;20072;-80
2023/09/12 06:15:33;;;;;;;;;;;20.40;99.90;;;;;;6708869;88;20067;-81
2023/09/12 06:25:35;;;;;;;;;;;20.50;99.90;;;;;;6710381;88;20063;-81
2023/09/12 06:35:36;;;;;;;;;;;20.60;99.90;;;;;;6708364;88;20076;-80
2023/09/12 06:45:37;;;;;;;;;;;21.00;99.90;;;;;;6713193;88;20095;-80
2023/09/12 06:55:38;;;;;;;;;;;21.20;99.90;;;;;;6724534;88;20075;-81
2023/09/12 07:05:39;;;;;;;;;;;21.40;99.90;;;;;;6712024;88;20062;-80
2023/09/12 07:15:40;;;;;;;;;;;21.80;99.90;;;;;;6706849;88;20089;-79
2023/09/12 07:25:41;;;;;;;;;;;22.10;99.90;;;;;;6706972;88;20056;-80
2023/09/12 07:35:41;;;;;;;;;;;22.30;99.90;;;;;;6705472;88;20048;-80
2023/09/12 07:45:42;;;;;;;;;;;22.60;99.90;;;;;;6719292;88;20509;-80
2023/09/12 07:55:46;;;;;;;;;;;22.70;99.90;;;;;;6710560;88;20407;-80
2023/09/12 08:05:58;;;;;;;;;;;23.00;99.90;;;;;;6713980;88;20086;-80
2023/09/12 08:15:59;;;;;;;;;;;22.90;99.90;;;;;;6724162;88;20102;-80
2023/09/12 08:25:59;;;;;;;;;;;23.10;99.90;;;;;;6720013;88;20511;-80
2023/09/12 08:36:00;;;;;;;;;;;23.20;99.90;;;;;;6712118;88;20081;-80
2023/09/12 08:46:00;;;;;;;;;;;23.40;99.90;;;;;;6727477;88;20070;-80
2023/09/12 08:56:03;;;;;;;;;;;24.00;99.90;;;;;;6731674;88;20086;-78
2023/09/12 09:06:04;;;;;;;;;;;24.70;99.90;;;;;;6727132;88;20565;-79
2023/09/12 09:16:15;;;;;;;;;;;25.30;99.90;;;;;;6718211;88;20084;-78
2023/09/12 09:26:16;;;;;;;;;;;25.90;99.90;;;;;;6712707;88;20157;-78
2023/09/12 09:36:16;;;;;;;;;;;26.30;99.90;;;;;;6711253;88;20079;-79
2023/09/12 09:46:19;;;;;;;;;;;27.10;99.90;;;;;;6706868;88;20412;-78
2023/09/12 09:56:19;;;;;;;;;;;26.90;99.90;;;;;;6713926;88;20071;-78
2023/09/12 10:06:20;;;;;;;;;;;27.10;99.90;;;;;;6710648;88;20149;-78
2023/09/12 10:16:22;;;;;;;;;;;27.70;99.90;;;;;;6713136;88;20055;-82
2023/09/12 10:26:23;;;;;;;;;;;29.60;99.90;;;;;;6711869;88;20092;-79
2023/09/12 10:36:25;;;;;;;;;;;30.20;99.90;;;;;;6711535;88;20260;-79
2023/09/12 10:46:26;;;;;;;;;;;29.90;99.90;;;;;;6712212;88;20124;-81
2023/09/12 10:56:32;;;;;;;;;;;29.30;99.90;;;;;;6720847;77;20476;-78
2023/09/12 11:06:32;;;;;;;;;;;29.70;99.90;;;;;;6708324;88;20189;-78
2023/09/12 11:16:33;;;;;;;;;;;29.80;99.90;;;;;;6705428;88;20081;-78
2023/09/12 11:26:33;;;;;;;;;;;30.20;99.90;;;;;;6705625;88;20619;-78
2023/09/12 11:36:38;;;;;;;;;;;30.90;99.90;;;;;;6706892;88;20575;-77
2023/09/12 11:46:38;;;;;;;;;;;31.20;99.90;;;;;;6707102;88;20086;-75
2023/09/12 11:56:38;;;;;;;;;;;32.20;99.90;;;;;;6703306;88;20096;-76
2023/09/12 12:06:39;;;;;;;;;;;32.80;99.90;;;;;;6710720;88;20094;-77
2023/09/12 12:16:39;;;;;;;;;;;32.70;99.90;;;;;;6703891;88;20143;-77
2023/09/12 12:26:41;;;;;;;;;;;32.70;99.90;;;;;;6701229;88;20044;-78
2023/09/12 12:36:42;;;;;;;;;;;31.40;99.90;;;;;;6712995;88;20048;-78
2023/09/12 12:46:53;;;;;;;;;;;30.90;99.90;;;;;;6697213;88;20699;-80
2023/09/12 12:56:53;;;;;;;;;;;30.40;99.90;;;;;;6696618;88;20190;-79
2023/09/12 13:06:54;;;;;;;;;;;29.90;99.90;;;;;;6696325;88;20067;-78
2023/09/12 13:16:54;;;;;;;;;;;30.00;99.90;;;;;;6696176;88;20149;-76
2023/09/12 13:26:54;;;;;;;;;;;29.50;99.90;;;;;;6696462;88;20091;-78
2023/09/12 13:36:56;;;;;;;;;;;29.20;99.90;;;;;;6696178;88;20115;-78
2023/09/12 13:46:57;;;;;;;;;;;29.00;99.90;;;;;;6696556;88;20046;-76
2023/09/12 13:56:58;;;;;;;;;;;29.30;99.90;;;;;;6697166;88;20129;-78
2023/09/12 14:06:58;;;;;;;;;;;29.30;99.90;;;;;;6701323;88;20055;-79
2023/09/12 14:16:59;;;;;;;;;;;29.20;99.90;;;;;;6696706;88;20063;-78
2023/09/12 14:27:00;;;;;;;;;;;29.00;99.90;;;;;;6698147;88;20047;-77
2023/09/12 14:37:00;;;;;;;;;;;29.00;99.90;;;;;;6698755;88;20503;-78
2023/09/12 14:47:01;;;;;;;;;;;29.90;99.90;;;;;;6699107;88;20069;-79
2023/09/12 14:57:01;;;;;;;;;;;29.40;99.90;;;;;;6704401;88;20077;-78
2023/09/12 15:07:02;;;;;;;;;;;28.80;99.90;;;;;;6699791;88;20561;-77
2023/09/12 15:17:03;;;;;;;;;;;29.10;99.90;;;;;;6703770;88;20052;-79
2023/09/12 15:27:03;;;;;;;;;;;28.90;99.90;;;;;;6718038;88;20050;-76
2023/09/12 15:37:11;;;;;;;;;;;28.30;99.90;;;;;;6714188;88;20043;-79
2023/09/12 15:47:11;;;;;;;;;;;27.70;99.90;;;;;;6703051;88;20158;-83
2023/09/12 15:57:13;;;;;;;;;;;27.40;99.90;;;;;;6710975;88;20102;-80
2023/09/12 16:07:14;;;;;;;;;;;27.10;99.90;;;;;;6705846;88;20055;-82
2023/09/12 16:17:14;;;;;;;;;;;26.90;99.90;;;;;;6715408;88;20078;-82
2023/09/12 16:27:17;;;;;;;;;;;26.60;99.90;;;;;;6719565;88;20060;-82
2023/09/12 16:37:17;;;;;;;;;;;26.40;99.90;;;;;;6706836;88;20061;-80
2023/09/12 16:47:18;;;;;;;;;;;26.20;99.90;;;;;;6704907;88;20054;-82
2023/09/12 16:57:18;;;;;;;;;;;26.00;99.90;;;;;;6733952;77;20085;-79
2023/09/12 17:07:19;;;;;;;;;;;25.80;99.90;;;;;;6718531;88;20088;-79
2023/09/12 17:17:19;;;;;;;;;;;25.10;99.90;;;;;;6707985;88;20101;-79
2023/09/12 17:27:20;;;;;;;;;;;23.80;99.90;;;;;;6707613;88;20574;-79
2023/09/12 17:37:22;;;;;;;;;;;23.10;99.90;;;;;;6707385;88;20066;-80
2023/09/12 17:47:23;;;;;;;;;;;22.80;99.90;;;;;;6720377;88;20577;-79
2023/09/12 17:57:23;;;;;;;;;;;22.50;99.90;;;;;;6719169;87;20117;-80
2023/09/12 18:07:24;;;;;;;;;;;22.30;99.90;;;;;;6712551;88;20062;-81
2023/09/12 18:17:24;;;;;;;;;;;22.10;99.90;;;;;;6713032;88;20103;-81
2023/09/12 18:27:25;;;;;;;;;;;21.90;99.90;;;;;;6718587;88;20551;-81
2023/09/12 18:37:26;;;;;;;;;;;21.50;99.90;;;;;;6737519;88;20055;-79
2023/09/12 18:47:27;;;;;;;;;;;21.30;99.90;;;;;;6735674;88;20063;-79
2023/09/12 18:57:27;;;;;;;;;;;20.90;99.90;;;;;;6725058;87;20067;-79
2023/09/12 19:07:27;;;;;;;;;;;20.80;99.90;;;;;;6713684;88;20085;-79
2023/09/12 19:17:29;;;;;;;;;;;20.70;99.90;;;;;;6704866;88;20159;-79
2023/09/12 19:27:29;;;;;;;;;;;20.60;99.90;;;;;;6704811;88;20077;-80
2023/09/12 19:37:30;;;;;;;;;;;20.30;99.90;;;;;;6709769;88;20071;-78
2023/09/12 19:47:31;;;;;;;;;;;19.80;99.90;;;;;;6710920;88;20073;-78
2023/09/12 19:57:32;;;;;;;;;;;19.40;99.90;;;;;;6712725;88;20067;-81
2023/09/12 20:07:33;;;;;;;;;;;19.50;99.90;;;;;;6713581;88;20050;-77
2023/09/12 20:17:33;;;;;;;;;;;19.50;99.90;;;;;;6713262;88;20599;-79
2023/09/12 20:27:34;;;;;;;;;;;19.30;99.90;;;;;;6707581;88;20136;-78
2023/09/12 20:37:34;;;;;;;;;;;19.30;99.90;;;;;;6700464;88;20076;-77
2023/09/12 20:47:36;;;;;;;;;;;19.20;99.90;;;;;;6701906;88;20119;-77
2023/09/12 20:57:36;;;;;;;;;;;19.20;99.90;;;;;;6702021;88;20105;-77
2023/09/12 21:07:37;;;;;;;;;;;19.10;99.90;;;;;;6710546;88;20069;-77
2023/09/12 21:17:38;;;;;;;;;;;19.00;99.90;;;;;;6714572;88;20080;-77
2023/09/12 21:27:39;;;;;;;;;;;18.90;99.90;;;;;;6717446;88;20066;-77
2023/09/12 21:37:39;;;;;;;;;;;18.70;99.90;;;;;;6720132;88;20078;-77
2023/09/12 21:47:40;;;;;;;;;;;18.80;99.90;;;;;;6723218;88;20079;-77
2023/09/12 21:57:41;;;;;;;;;;;18.80;99.90;;;;;;6709217;88;20226;-77
2023/09/12 22:07:41;;;;;;;;;;;18.70;99.90;;;;;;6683142;88;20085;-76
2023/09/12 22:17:42;;;;;;;;;;;18.80;99.90;;;;;;6694054;88;20083;-78
2023/09/12 22:27:43;;;;;;;;;;;18.80;99.90;;;;;;6690244;88;20527;-78
2023/09/12 22:37:43;;;;;;;;;;;18.90;99.90;;;;;;6684975;88;20133;-78
2023/09/12 22:47:44;;;;;;;;;;;18.80;99.90;;;;;;6689877;88;20162;-77
2023/09/12 22:57:44;;;;;;;;;;;18.70;99.90;;;;;;6695459;88;20580;-77
2023/09/12 23:07:46;;;;;;;;;;;18.70;99.90;;;;;;6709523;77;20116;-74
2023/09/12 23:17:46;;;;;;;;;;;18.60;99.90;;;;;;6708678;88;20081;-74
2023/09/12 23:27:47;;;;;;;;;;;18.60;99.90;;;;;;6699378;88;20059;-75
2023/09/12 23:37:47;;;;;;;;;;;18.60;99.90;;;;;;6702283;88;20056;-74
2023/09/12 23:47:48;;;;;;;;;;;18.60;99.90;;;;;;6695954;88;20066;-74
2023/09/12 23:57:48;;;;;;;;;;;18.60;99.90;;;;;;6702469;88;20059;-75
